• Join FlightAware (Why Join?)
  • Login
  • US Flag 
03:44AM EDT


 

Airport Tracker/Info


-or-


 

Live Flight TrackerFlight Track Log ✈ NASA817 ✈ 17-Jun-2013 ✈ KPMD - KPMD

Flight Track Log - Related Links

Times and Time Zones

All times are in EDT time to prevent confusion due to time zone crossing. See the NASA817 flight status page for this flight to view local times or setup timezone preferences in your user account.

Time Position Orientation Groundspeed Altitude Reporting Facility
EDT Latitude Longitude Course Direction KTS MPH feet Rate Location/Type
12:28PM 34.6286 -118.1208 97° East 172 198 3,400  Level Los Angeles Center
12:29PM 34.6803 -118.1444 339° North 239 275 5,200 1,680 Climbing Los Angeles Center
12:30PM 34.7064 -118.0600 69° East 264 304 6,900 1,380 Climbing Los Angeles Center
12:31PM 34.6872 -117.9503 102° East 273 314 8,100 1,500 Climbing Los Angeles Center
12:32PM 34.6294 -118.0845 96° East  Level Estimated
12:32PM 34.6728 -117.8747 103° East 285 328 10,000  Level Los Angeles Center
12:33PM 34.6294 -118.0845 97° East  Level Estimated
12:33PM 34.6600 -117.7519 97° East 306 352 12,000  Level Los Angeles Center
12:34PM 34.6317 -117.6392 107° East 345 397 13,100 480 Climbing Los Angeles Center
12:35PM 34.6000 -117.5128 107° East 384 442 13,000 -60 Descending Los Angeles Center
12:36PM 34.5819 -117.3436 97° East 421 484 13,000  Level Los Angeles Center
12:37PM 34.5569 -117.2053 102° East 423 487 13,000 -60 Level Los Angeles Center
12:38PM 34.5381 -117.0694 100° East 413 475 12,900 -60 Descending Los Angeles Center
12:39PM 34.4972 -116.9467 112° Southeast 398 458 12,900  Level Los Angeles Center
12:40PM 34.4072 -116.8708 145° Southeast 394 453 12,900  Level Los Angeles Center
12:41PM 34.2986 -116.7831 146° Southeast 391 450 13,000  Climbing Los Angeles Center
12:42PM 34.2308 -116.7267 145° Southeast 377 434 13,000  Level Los Angeles Center
12:44PM 34.1442 -116.6497 144° Southeast 324 373 13,000  Level Los Angeles Center
12:45PM 34.0858 -116.5958 143° Southeast 263 303 13,100  Climbing Los Angeles Center
12:46PM 34.0183 -116.5372 144° Southeast 257 296 13,100 -120 Level Los Angeles Center
12:47PM 33.9561 -116.4942 150° Southeast 261 300 12,900 -120 Descending Los Angeles Center
12:48PM 33.8639 -116.4261 148° Southeast 275 316 12,900  Level Los Angeles Center
12:49PM 33.8053 -116.3731 143° Southeast 263 303 12,900  Level Los Angeles Center
12:50PM 33.7528 -116.3256 143° Southeast 236 272 12,900  Level Los Angeles Center
12:51PM 33.6939 -116.2722 143° Southeast 254 292 12,900  Level Los Angeles Center
12:52PM 33.6181 -116.2094 145° Southeast 297 342 12,900  Level Los Angeles Center
12:53PM 33.5400 -116.1378 143° Southeast 341 392 12,900  Level Los Angeles Center
12:54PM 33.4531 -116.0169 131° Southeast 343 395 12,900  Level Los Angeles Center
12:56PM 33.3922 -115.9289 130° Southeast 342 394 12,900  Level Los Angeles Center
12:57PM 33.3333 -115.8408 129° Southeast 340 391 13,000  Climbing Los Angeles Center
12:58PM 33.2725 -115.7522 129° Southeast 342 394 13,000  Level Los Angeles Center
12:59PM 33.2117 -115.6644 130° Southeast 342 394 13,000  Level Los Angeles Center
01:00PM 33.1503 -115.5764 130° Southeast 344 396 13,000  Level Los Angeles Center
01:01PM 33.0767 -115.4697 129° Southeast 345 397 13,000  Level Los Angeles Center
01:02PM 33.0147 -115.3825 130° Southeast 344 396 13,000  Level Los Angeles Center
01:03PM 32.9564 -115.2986 130° Southeast 334 384 13,000  Level Los Angeles Center
01:04PM 32.8861 -115.2456 148° Southeast 313 360 13,000  Level Los Angeles Center
01:05PM 32.8414 -115.2961 224° Southwest 248 285 13,000  Level Los Angeles Center
01:06PM 32.8831 -115.3425 317° Northwest 222 255 13,000  Level Los Angeles Center
01:07PM 32.9600 -115.3986 329° Northwest 280 322 13,000  Level Los Angeles Center
01:08PM 33.0197 -115.4889 308° West 335 386 13,000  Level Los Angeles Center
01:09PM 33.0822 -115.5747 311° West 345 397 13,000  Level Los Angeles Center
01:10PM 33.1403 -115.6561 310° West 331 381 13,000  Level Los Angeles Center
01:11PM 33.2006 -115.7369 312° West 328 377 13,000  Level Los Angeles Center
01:12PM 33.2617 -115.8233 310° West 337 388 13,000  Level Los Angeles Center
01:13PM 33.3375 -115.9247 312° West 342 394 13,000  Level Los Angeles Center
01:14PM 33.3981 -116.0092 311° West 338 389 13,000  Level Los Angeles Center
01:15PM 33.4592 -116.0942 311° West 338 389 13,000  Level Los Angeles Center
01:16PM 33.5208 -116.1808 310° West 342 394 13,000 480 Level Los Angeles Center
01:17PM 33.5875 -116.2847 308° West 332 382 14,000 480 Climbing Los Angeles Center
01:18PM 33.6422 -116.3683 308° West 323 372 14,000  Level Los Angeles Center
01:19PM 33.6978 -116.4544 308° West 327 376 14,000  Level Los Angeles Center
01:20PM 33.7561 -116.5472 307° West 347 399 14,000  Level Los Angeles Center
01:21PM 33.8197 -116.6444 308° West 369 425 14,000  Level Los Angeles Center
01:22PM 33.8836 -116.7453 307° West 380 437 14,100  Climbing Los Angeles Center
01:23PM 33.9603 -116.8681 307° West 382 440 14,100  Level Los Angeles Center
01:25PM 34.0244 -116.9689 308° West 381 438 14,100  Level Los Angeles Center
01:26PM 34.0881 -117.0714 307° West 383 441 14,100 -60 Level Los Angeles Center
01:27PM 34.1522 -117.1731 307° West 386 444 14,000 -60 Descending Los Angeles Center
01:28PM 34.2275 -117.2925 307° West 386 444 14,000  Level Los Angeles Center
01:29PM 34.2914 -117.3956 307° West 385 443 14,000  Level Los Angeles Center
01:30PM 34.3558 -117.4986 307° West 384 442 14,100  Climbing Los Angeles Center
01:31PM 34.4214 -117.6061 306° West 381 438 14,100 -300 Level Los Angeles Center
01:32PM 34.4708 -117.6875 306° West 309 356 13,600 -1,020 Descending Los Angeles Center
01:33PM 34.5194 -117.7669 307° West 294 338 12,000 -840 Descending Los Angeles Center
01:34PM 34.5636 -117.8369 307° West 263 303 11,900 -1,020 Descending Los Angeles Center
01:35PM 34.6011 -117.8942 309° West 222 255 9,900 -2,340 Descending Los Angeles Center
01:36PM 34.6472 -117.9747 305° West 235 270 7,100 -2,040 Descending Los Angeles Center
01:37PM 34.6831 -118.0453 302° West 240 276 5,700 -1,080 Descending Los Angeles Center
01:38PM 34.7308 -118.0775 331° Northwest 224 258 4,900 -600 Descending Los Angeles Center
01:39PM 34.7214 -118.0358 105° East 211 243 4,500 -300 Descending Los Angeles Center
01:41PM 34.6317 -118.0792 202° Southwest 195 224 4,000 -180 Descending Los Angeles Center
01:42PM 34.5831 -118.0786 179° South 186 214 4,000  Level Los Angeles Center
01:43PM 34.5656 -118.1228 244° Southwest 175 201 4,100  Climbing Los Angeles Center
01:44PM 34.5958 -118.1731 306° West 188 216 4,000  Descending Los Angeles Center
01:45PM 34.6183 -118.1325 56° Northeast 178 205 4,100  Climbing Los Angeles Center
01:46PM 34.6094 -118.0692 100° East 185 213 4,000 -60 Descending Los Angeles Center
01:47PM 34.5922 -117.9969 106° East 187 215 4,000  Level Los Angeles Center
01:48PM 34.6050 -117.9497 72° East 175 201 4,100 -120 Climbing Los Angeles Center
01:49PM 34.6358 -117.9861 316° Northwest 169 194 3,800 -480 Descending Los Angeles Center
01:50PM 34.6350 -118.0392 269° West 163 188 3,200 -660 Descending Los Angeles Center
01:51PM 34.6319 -118.0894 266° West 156 180 2,500 -300 Descending Los Angeles Center
01:52PM 34.6300 -118.1000 257° West 76 87 2,600  Climbing Los Angeles Center
01:54PM 34.6303 -118.0931 87° East 32 37 2,500 -60 Descending Los Angeles Center
01:55PM 34.6319 -118.0875 70° East 27 31 2,500  Level Los Angeles Center